sensor_id;sensor_type;location;lat;lon;timestamp;P1;durP1;ratioP1;P2;durP2;ratioP2
70303;SDS011;57712;48.752;11.348;2024-01-10T00:00:08;24.90;;;9.93;;
70303;SDS011;57712;48.752;11.348;2024-01-10T00:02:38;24.33;;;10.20;;
70303;SDS011;57712;48.752;11.348;2024-01-10T00:05:04;23.73;;;10.05;;
70303;SDS011;57712;48.752;11.348;2024-01-10T00:07:32;26.85;;;10.05;;
70303;SDS011;57712;48.752;11.348;2024-01-10T00:09:58;25.27;;;10.13;;
70303;SDS011;57712;48.752;11.348;2024-01-10T00:12:27;27.80;;;11.50;;
70303;SDS011;57712;48.752;11.348;2024-01-10T00:14:59;29.42;;;10.55;;
70303;SDS011;57712;48.752;11.348;2024-01-10T00:17:26;25.42;;;9.88;;
70303;SDS011;57712;48.752;11.348;2024-01-10T00:19:53;25.02;;;9.73;;
70303;SDS011;57712;48.752;11.348;2024-01-10T00:22:19;23.67;;;10.47;;
70303;SDS011;57712;48.752;11.348;2024-01-10T00:24:46;24.40;;;9.32;;
70303;SDS011;57712;48.752;11.348;2024-01-10T00:27:12;24.40;;;9.88;;
70303;SDS011;57712;48.752;11.348;2024-01-10T00:29:39;24.77;;;9.55;;
70303;SDS011;57712;48.752;11.348;2024-01-10T00:32:06;21.50;;;8.57;;
70303;SDS011;57712;48.752;11.348;2024-01-10T00:34:33;23.43;;;8.97;;
70303;SDS011;57712;48.752;11.348;2024-01-10T00:37:00;23.83;;;9.10;;
70303;SDS011;57712;48.752;11.348;2024-01-10T00:39:26;22.77;;;8.65;;
70303;SDS011;57712;48.752;11.348;2024-01-10T00:41:53;22.30;;;9.50;;
70303;SDS011;57712;48.752;11.348;2024-01-10T00:44:20;23.33;;;8.85;;
70303;SDS011;57712;48.752;11.348;2024-01-10T00:46:46;25.60;;;9.43;;
70303;SDS011;57712;48.752;11.348;2024-01-10T00:49:13;21.13;;;8.10;;
70303;SDS011;57712;48.752;11.348;2024-01-10T00:51:40;22.10;;;8.43;;
70303;SDS011;57712;48.752;11.348;2024-01-10T00:54:06;21.88;;;8.40;;
70303;SDS011;57712;48.752;11.348;2024-01-10T00:56:33;22.90;;;8.90;;
70303;SDS011;57712;48.752;11.348;2024-01-10T00:59:00;22.77;;;8.47;;
70303;SDS011;57712;48.752;11.348;2024-01-10T01:01:27;20.83;;;8.75;;
70303;SDS011;57712;48.752;11.348;2024-01-10T01:03:54;23.05;;;8.90;;
70303;SDS011;57712;48.752;11.348;2024-01-10T01:06:20;22.55;;;8.50;;
70303;SDS011;57712;48.752;11.348;2024-01-10T01:08:47;24.55;;;8.82;;
70303;SDS011;57712;48.752;11.348;2024-01-10T01:11:14;23.70;;;8.77;;
70303;SDS011;57712;48.752;11.348;2024-01-10T01:13:41;21.48;;;8.45;;
70303;SDS011;57712;48.752;11.348;2024-01-10T01:16:07;24.42;;;9.75;;
70303;SDS011;57712;48.752;11.348;2024-01-10T01:18:34;22.95;;;9.02;;
70303;SDS011;57712;48.752;11.348;2024-01-10T01:21:02;27.00;;;9.27;;
70303;SDS011;57712;48.752;11.348;2024-01-10T01:23:29;21.33;;;8.97;;
70303;SDS011;57712;48.752;11.348;2024-01-10T01:26:07;23.17;;;9.65;;
70303;SDS011;57712;48.752;11.348;2024-01-10T01:28:33;25.33;;;9.40;;
70303;SDS011;57712;48.752;11.348;2024-01-10T01:31:00;24.55;;;9.50;;
70303;SDS011;57712;48.752;11.348;2024-01-10T01:33:27;24.77;;;8.85;;
70303;SDS011;57712;48.752;11.348;2024-01-10T01:35:54;24.43;;;9.33;;
70303;SDS011;57712;48.752;11.348;2024-01-10T01:38:21;22.23;;;9.07;;
70303;SDS011;57712;48.752;11.348;2024-01-10T01:40:47;23.33;;;9.75;;
70303;SDS011;57712;48.752;11.348;2024-01-10T01:43:21;22.83;;;8.32;;
70303;SDS011;57712;48.752;11.348;2024-01-10T01:45:50;21.58;;;9.25;;
70303;SDS011;57712;48.752;11.348;2024-01-10T01:48:19;25.43;;;9.90;;
70303;SDS011;57712;48.752;11.348;2024-01-10T01:50:47;22.75;;;9.60;;
70303;SDS011;57712;48.752;11.348;2024-01-10T01:53:17;22.23;;;8.93;;
70303;SDS011;57712;48.752;11.348;2024-01-10T01:55:45;23.02;;;9.40;;
70303;SDS011;57712;48.752;11.348;2024-01-10T01:58:12;26.95;;;9.85;;
70303;SDS011;57712;48.752;11.348;2024-01-10T02:00:39;23.47;;;9.17;;
70303;SDS011;57712;48.752;11.348;2024-01-10T02:03:06;26.05;;;9.18;;
70303;SDS011;57712;48.752;11.348;2024-01-10T02:05:35;23.10;;;10.10;;
70303;SDS011;57712;48.752;11.348;2024-01-10T02:08:02;24.20;;;9.57;;
70303;SDS011;57712;48.752;11.348;2024-01-10T02:10:29;26.77;;;10.05;;
70303;SDS011;57712;48.752;11.348;2024-01-10T02:12:56;23.57;;;9.90;;
70303;SDS011;57712;48.752;11.348;2024-01-10T02:15:23;22.10;;;9.70;;
70303;SDS011;57712;48.752;11.348;2024-01-10T02:17:50;25.60;;;9.05;;
70303;SDS011;57712;48.752;11.348;2024-01-10T02:20:17;24.90;;;10.68;;
70303;SDS011;57712;48.752;11.348;2024-01-10T02:22:46;22.65;;;9.10;;
70303;SDS011;57712;48.752;11.348;2024-01-10T02:25:13;22.47;;;9.53;;
70303;SDS011;57712;48.752;11.348;2024-01-10T02:27:40;22.85;;;8.82;;
70303;SDS011;57712;48.752;11.348;2024-01-10T02:30:07;22.77;;;9.85;;
70303;SDS011;57712;48.752;11.348;2024-01-10T02:32:35;23.92;;;9.15;;
70303;SDS011;57712;48.752;11.348;2024-01-10T02:35:03;27.15;;;9.52;;
70303;SDS011;57712;48.752;11.348;2024-01-10T02:37:31;24.77;;;9.53;;
70303;SDS011;57712;48.752;11.348;2024-01-10T02:39:57;26.15;;;9.35;;
70303;SDS011;57712;48.752;11.348;2024-01-10T02:42:24;23.60;;;9.82;;
70303;SDS011;57712;48.752;11.348;2024-01-10T02:44:51;25.17;;;9.60;;
70303;SDS011;57712;48.752;11.348;2024-01-10T02:47:17;25.63;;;10.52;;
70303;SDS011;57712;48.752;11.348;2024-01-10T02:49:44;28.10;;;10.83;;
70303;SDS011;57712;48.752;11.348;2024-01-10T02:52:11;24.85;;;10.85;;
70303;SDS011;57712;48.752;11.348;2024-01-10T02:54:39;26.80;;;9.73;;
70303;SDS011;57712;48.752;11.348;2024-01-10T02:57:05;27.00;;;10.38;;
70303;SDS011;57712;48.752;11.348;2024-01-10T02:59:32;24.73;;;10.10;;
70303;SDS011;57712;48.752;11.348;2024-01-10T03:01:59;23.93;;;10.23;;
70303;SDS011;57712;48.752;11.348;2024-01-10T03:04:25;23.83;;;10.00;;
70303;SDS011;57712;48.752;11.348;2024-01-10T03:06:52;28.30;;;10.85;;
70303;SDS011;57712;48.752;11.348;2024-01-10T03:09:19;29.08;;;11.05;;
70303;SDS011;57712;48.752;11.348;2024-01-10T03:11:45;30.30;;;11.30;;
70303;SDS011;57712;48.752;11.348;2024-01-10T03:14:12;29.77;;;11.77;;
70303;SDS011;57712;48.752;11.348;2024-01-10T03:16:39;29.15;;;11.57;;
70303;SDS011;57712;48.752;11.348;2024-01-10T03:19:05;29.23;;;11.00;;
70303;SDS011;57712;48.752;11.348;2024-01-10T03:21:32;29.48;;;11.48;;
70303;SDS011;57712;48.752;11.348;2024-01-10T03:23:59;28.05;;;11.40;;
70303;SDS011;57712;48.752;11.348;2024-01-10T03:26:28;26.90;;;11.67;;
70303;SDS011;57712;48.752;11.348;2024-01-10T03:28:56;27.55;;;11.65;;
70303;SDS011;57712;48.752;11.348;2024-01-10T03:31:24;27.55;;;10.90;;
70303;SDS011;57712;48.752;11.348;2024-01-10T03:33:51;27.23;;;10.90;;
70303;SDS011;57712;48.752;11.348;2024-01-10T03:36:18;29.50;;;10.65;;
70303;SDS011;57712;48.752;11.348;2024-01-10T03:38:44;28.73;;;10.63;;
70303;SDS011;57712;48.752;11.348;2024-01-10T03:41:15;28.25;;;11.73;;
70303;SDS011;57712;48.752;11.348;2024-01-10T03:43:43;28.65;;;11.45;;
70303;SDS011;57712;48.752;11.348;2024-01-10T03:46:10;26.80;;;10.63;;
70303;SDS011;57712;48.752;11.348;2024-01-10T03:48:37;27.73;;;11.70;;
70303;SDS011;57712;48.752;11.348;2024-01-10T03:51:17;30.27;;;11.93;;
70303;SDS011;57712;48.752;11.348;2024-01-10T03:53:45;29.70;;;11.38;;
70303;SDS011;57712;48.752;11.348;2024-01-10T03:56:12;29.38;;;12.27;;
70303;SDS011;57712;48.752;11.348;2024-01-10T03:58:39;28.15;;;11.38;;
70303;SDS011;57712;48.752;11.348;2024-01-10T04:01:07;29.90;;;11.80;;
70303;SDS011;57712;48.752;11.348;2024-01-10T04:03:34;27.27;;;10.67;;
70303;SDS011;57712;48.752;11.348;2024-01-10T04:06:01;25.38;;;11.30;;
70303;SDS011;57712;48.752;11.348;2024-01-10T04:08:29;29.35;;;11.27;;
70303;SDS011;57712;48.752;11.348;2024-01-10T04:10:56;29.42;;;11.50;;
70303;SDS011;57712;48.752;11.348;2024-01-10T04:13:24;29.17;;;10.65;;
70303;SDS011;57712;48.752;11.348;2024-01-10T04:15:51;26.73;;;10.73;;
70303;SDS011;57712;48.752;11.348;2024-01-10T04:18:17;29.38;;;10.98;;
70303;SDS011;57712;48.752;11.348;2024-01-10T04:20:44;27.05;;;11.07;;
70303;SDS011;57712;48.752;11.348;2024-01-10T04:23:11;27.98;;;11.30;;
70303;SDS011;57712;48.752;11.348;2024-01-10T04:25:38;26.70;;;11.10;;
70303;SDS011;57712;48.752;11.348;2024-01-10T04:28:05;29.97;;;11.47;;
70303;SDS011;57712;48.752;11.348;2024-01-10T04:30:32;27.38;;;10.82;;
70303;SDS011;57712;48.752;11.348;2024-01-10T04:32:59;30.67;;;12.45;;
70303;SDS011;57712;48.752;11.348;2024-01-10T04:35:26;28.55;;;10.50;;
70303;SDS011;57712;48.752;11.348;2024-01-10T04:37:53;29.65;;;11.80;;
70303;SDS011;57712;48.752;11.348;2024-01-10T04:40:19;29.43;;;11.40;;
70303;SDS011;57712;48.752;11.348;2024-01-10T04:42:46;27.70;;;11.80;;
70303;SDS011;57712;48.752;11.348;2024-01-10T04:45:13;26.90;;;10.85;;
70303;SDS011;57712;48.752;11.348;2024-01-10T04:47:40;28.42;;;11.95;;
70303;SDS011;57712;48.752;11.348;2024-01-10T04:50:07;33.17;;;11.55;;
70303;SDS011;57712;48.752;11.348;2024-01-10T04:52:39;29.43;;;11.03;;
70303;SDS011;57712;48.752;11.348;2024-01-10T04:55:05;27.08;;;11.02;;
70303;SDS011;57712;48.752;11.348;2024-01-10T04:57:34;28.85;;;10.85;;
70303;SDS011;57712;48.752;11.348;2024-01-10T05:00:02;29.45;;;10.48;;
70303;SDS011;57712;48.752;11.348;2024-01-10T05:02:31;27.10;;;11.45;;
70303;SDS011;57712;48.752;11.348;2024-01-10T05:04:58;26.67;;;10.80;;
70303;SDS011;57712;48.752;11.348;2024-01-10T05:07:26;29.48;;;11.45;;
70303;SDS011;57712;48.752;11.348;2024-01-10T05:09:52;25.83;;;10.95;;
70303;SDS011;57712;48.752;11.348;2024-01-10T05:12:19;29.55;;;11.45;;
70303;SDS011;57712;48.752;11.348;2024-01-10T05:14:46;28.27;;;11.07;;
70303;SDS011;57712;48.752;11.348;2024-01-10T05:17:13;33.23;;;11.77;;
70303;SDS011;57712;48.752;11.348;2024-01-10T05:19:40;31.15;;;11.30;;
70303;SDS011;57712;48.752;11.348;2024-01-10T05:22:07;28.52;;;11.30;;
70303;SDS011;57712;48.752;11.348;2024-01-10T05:24:34;28.25;;;11.23;;
70303;SDS011;57712;48.752;11.348;2024-01-10T05:27:02;27.10;;;11.13;;
70303;SDS011;57712;48.752;11.348;2024-01-10T05:29:29;28.70;;;11.47;;
70303;SDS011;57712;48.752;11.348;2024-01-10T05:31:56;29.08;;;11.68;;
70303;SDS011;57712;48.752;11.348;2024-01-10T05:34:22;30.15;;;11.40;;
70303;SDS011;57712;48.752;11.348;2024-01-10T05:36:49;28.20;;;12.02;;
70303;SDS011;57712;48.752;11.348;2024-01-10T05:39:16;29.27;;;11.50;;
70303;SDS011;57712;48.752;11.348;2024-01-10T05:41:43;29.80;;;11.43;;
70303;SDS011;57712;48.752;11.348;2024-01-10T05:44:12;29.33;;;10.93;;
70303;SDS011;57712;48.752;11.348;2024-01-10T05:46:39;27.10;;;11.90;;
70303;SDS011;57712;48.752;11.348;2024-01-10T05:49:06;28.77;;;11.02;;
70303;SDS011;57712;48.752;11.348;2024-01-10T05:51:34;29.60;;;12.15;;
70303;SDS011;57712;48.752;11.348;2024-01-10T05:54:01;29.33;;;11.30;;
70303;SDS011;57712;48.752;11.348;2024-01-10T05:56:27;28.15;;;11.07;;
70303;SDS011;57712;48.752;11.348;2024-01-10T05:58:54;30.50;;;11.38;;
70303;SDS011;57712;48.752;11.348;2024-01-10T06:01:21;27.42;;;11.60;;
70303;SDS011;57712;48.752;11.348;2024-01-10T06:03:48;26.88;;;11.15;;
70303;SDS011;57712;48.752;11.348;2024-01-10T06:06:15;29.97;;;11.80;;
70303;SDS011;57712;48.752;11.348;2024-01-10T06:08:42;29.40;;;11.18;;
70303;SDS011;57712;48.752;11.348;2024-01-10T06:11:09;36.88;;;14.80;;
70303;SDS011;57712;48.752;11.348;2024-01-10T06:13:37;35.45;;;14.68;;
70303;SDS011;57712;48.752;11.348;2024-01-10T06:16:19;33.25;;;12.32;;
70303;SDS011;57712;48.752;11.348;2024-01-10T06:18:46;27.37;;;11.07;;
70303;SDS011;57712;48.752;11.348;2024-01-10T06:21:13;28.83;;;10.20;;
70303;SDS011;57712;48.752;11.348;2024-01-10T06:23:40;32.38;;;11.32;;
70303;SDS011;57712;48.752;11.348;2024-01-10T06:26:07;27.35;;;12.20;;
70303;SDS011;57712;48.752;11.348;2024-01-10T06:28:33;27.98;;;11.52;;
70303;SDS011;57712;48.752;11.348;2024-01-10T06:31:00;26.40;;;11.33;;
70303;SDS011;57712;48.752;11.348;2024-01-10T06:33:27;28.17;;;12.05;;
70303;SDS011;57712;48.752;11.348;2024-01-10T06:35:54;27.67;;;11.45;;
70303;SDS011;57712;48.752;11.348;2024-01-10T06:38:21;30.13;;;12.02;;
70303;SDS011;57712;48.752;11.348;2024-01-10T06:40:49;28.38;;;11.18;;
70303;SDS011;57712;48.752;11.348;2024-01-10T06:43:17;30.90;;;11.13;;
70303;SDS011;57712;48.752;11.348;2024-01-10T06:45:44;30.83;;;11.65;;
70303;SDS011;57712;48.752;11.348;2024-01-10T06:48:11;28.90;;;11.95;;
70303;SDS011;57712;48.752;11.348;2024-01-10T06:50:38;27.50;;;11.13;;
70303;SDS011;57712;48.752;11.348;2024-01-10T06:53:06;27.58;;;12.23;;
70303;SDS011;57712;48.752;11.348;2024-01-10T06:55:33;24.23;;;11.03;;
70303;SDS011;57712;48.752;11.348;2024-01-10T06:57:59;31.13;;;12.10;;
70303;SDS011;57712;48.752;11.348;2024-01-10T07:00:27;28.50;;;12.45;;
70303;SDS011;57712;48.752;11.348;2024-01-10T07:02:53;29.63;;;11.55;;
70303;SDS011;57712;48.752;11.348;2024-01-10T07:05:20;30.25;;;11.73;;
70303;SDS011;57712;48.752;11.348;2024-01-10T07:07:47;29.67;;;11.70;;
70303;SDS011;57712;48.752;11.348;2024-01-10T07:10:16;31.50;;;12.48;;
70303;SDS011;57712;48.752;11.348;2024-01-10T07:12:43;32.30;;;12.48;;
70303;SDS011;57712;48.752;11.348;2024-01-10T07:15:09;32.30;;;12.80;;
70303;SDS011;57712;48.752;11.348;2024-01-10T07:17:38;27.95;;;12.38;;
70303;SDS011;57712;48.752;11.348;2024-01-10T07:20:06;31.90;;;13.60;;
70303;SDS011;57712;48.752;11.348;2024-01-10T07:22:34;32.88;;;13.68;;
70303;SDS011;57712;48.752;11.348;2024-01-10T07:25:04;32.25;;;12.93;;
70303;SDS011;57712;48.752;11.348;2024-01-10T07:27:34;38.90;;;15.73;;
70303;SDS011;57712;48.752;11.348;2024-01-10T07:30:01;54.05;;;21.00;;
70303;SDS011;57712;48.752;11.348;2024-01-10T07:32:27;35.60;;;13.97;;
70303;SDS011;57712;48.752;11.348;2024-01-10T07:34:54;33.17;;;14.43;;
70303;SDS011;57712;48.752;11.348;2024-01-10T07:37:21;34.88;;;13.55;;
70303;SDS011;57712;48.752;11.348;2024-01-10T07:39:48;30.27;;;12.90;;
70303;SDS011;57712;48.752;11.348;2024-01-10T07:42:19;31.73;;;13.52;;
70303;SDS011;57712;48.752;11.348;2024-01-10T07:44:46;32.57;;;13.80;;
70303;SDS011;57712;48.752;11.348;2024-01-10T07:47:15;33.55;;;14.63;;
70303;SDS011;57712;48.752;11.348;2024-01-10T07:49:42;35.08;;;14.23;;
70303;SDS011;57712;48.752;11.348;2024-01-10T07:52:08;34.60;;;14.52;;
70303;SDS011;57712;48.752;11.348;2024-01-10T07:54:35;37.90;;;15.32;;
70303;SDS011;57712;48.752;11.348;2024-01-10T07:57:01;36.83;;;15.10;;
70303;SDS011;57712;48.752;11.348;2024-01-10T07:59:28;39.08;;;16.38;;
70303;SDS011;57712;48.752;11.348;2024-01-10T08:01:55;38.55;;;15.23;;
70303;SDS011;57712;48.752;11.348;2024-01-10T08:04:23;35.33;;;14.98;;
70303;SDS011;57712;48.752;11.348;2024-01-10T08:06:49;35.88;;;15.05;;
70303;SDS011;57712;48.752;11.348;2024-01-10T08:09:16;33.73;;;14.23;;
70303;SDS011;57712;48.752;11.348;2024-01-10T08:11:45;38.00;;;15.75;;
70303;SDS011;57712;48.752;11.348;2024-01-10T08:14:12;35.45;;;15.27;;
70303;SDS011;57712;48.752;11.348;2024-01-10T08:16:38;45.25;;;16.50;;
70303;SDS011;57712;48.752;11.348;2024-01-10T08:19:05;43.03;;;16.98;;
70303;SDS011;57712;48.752;11.348;2024-01-10T08:21:32;39.47;;;16.00;;
70303;SDS011;57712;48.752;11.348;2024-01-10T08:23:59;37.72;;;16.08;;
70303;SDS011;57712;48.752;11.348;2024-01-10T08:26:28;40.92;;;16.52;;
70303;SDS011;57712;48.752;11.348;2024-01-10T08:28:55;40.08;;;16.50;;
70303;SDS011;57712;48.752;11.348;2024-01-10T08:31:22;36.25;;;15.57;;
70303;SDS011;57712;48.752;11.348;2024-01-10T08:33:49;41.63;;;16.40;;
70303;SDS011;57712;48.752;11.348;2024-01-10T08:36:16;41.25;;;16.45;;
70303;SDS011;57712;48.752;11.348;2024-01-10T08:38:42;43.78;;;16.45;;
70303;SDS011;57712;48.752;11.348;2024-01-10T08:41:09;39.30;;;16.25;;
70303;SDS011;57712;48.752;11.348;2024-01-10T08:43:38;37.75;;;15.80;;
70303;SDS011;57712;48.752;11.348;2024-01-10T08:46:05;37.97;;;15.63;;
70303;SDS011;57712;48.752;11.348;2024-01-10T08:48:33;41.15;;;15.90;;
70303;SDS011;57712;48.752;11.348;2024-01-10T08:51:00;34.75;;;17.08;;
70303;SDS011;57712;48.752;11.348;2024-01-10T08:53:27;34.53;;;15.00;;
70303;SDS011;57712;48.752;11.348;2024-01-10T08:55:54;41.00;;;16.45;;
70303;SDS011;57712;48.752;11.348;2024-01-10T08:58:21;40.77;;;17.00;;
70303;SDS011;57712;48.752;11.348;2024-01-10T09:00:47;40.28;;;17.38;;
70303;SDS011;57712;48.752;11.348;2024-01-10T09:03:14;38.60;;;16.40;;
70303;SDS011;57712;48.752;11.348;2024-01-10T09:05:41;37.75;;;15.13;;
70303;SDS011;57712;48.752;11.348;2024-01-10T09:08:22;37.47;;;16.05;;
70303;SDS011;57712;48.752;11.348;2024-01-10T09:10:49;33.60;;;14.90;;
70303;SDS011;57712;48.752;11.348;2024-01-10T09:13:15;39.80;;;16.17;;
70303;SDS011;57712;48.752;11.348;2024-01-10T09:15:43;40.95;;;17.50;;
70303;SDS011;57712;48.752;11.348;2024-01-10T09:18:10;37.17;;;16.08;;
70303;SDS011;57712;48.752;11.348;2024-01-10T09:20:36;35.72;;;15.38;;
70303;SDS011;57712;48.752;11.348;2024-01-10T09:23:04;39.33;;;16.33;;
70303;SDS011;57712;48.752;11.348;2024-01-10T09:25:31;36.97;;;15.82;;
70303;SDS011;57712;48.752;11.348;2024-01-10T09:27:58;38.58;;;15.45;;
70303;SDS011;57712;48.752;11.348;2024-01-10T09:30:26;36.67;;;15.20;;
70303;SDS011;57712;48.752;11.348;2024-01-10T09:32:53;35.00;;;14.20;;
70303;SDS011;57712;48.752;11.348;2024-01-10T09:35:19;35.33;;;15.33;;
70303;SDS011;57712;48.752;11.348;2024-01-10T09:37:46;36.03;;;14.95;;
70303;SDS011;57712;48.752;11.348;2024-01-10T09:40:14;36.25;;;15.00;;
70303;SDS011;57712;48.752;11.348;2024-01-10T09:42:41;37.08;;;15.98;;
70303;SDS011;57712;48.752;11.348;2024-01-10T09:45:14;32.80;;;14.07;;
70303;SDS011;57712;48.752;11.348;2024-01-10T09:47:46;32.10;;;14.23;;
70303;SDS011;57712;48.752;11.348;2024-01-10T09:50:15;33.40;;;14.18;;
70303;SDS011;57712;48.752;11.348;2024-01-10T09:52:50;35.40;;;15.27;;
70303;SDS011;57712;48.752;11.348;2024-01-10T09:55:20;30.25;;;13.98;;
70303;SDS011;57712;48.752;11.348;2024-01-10T09:57:50;36.63;;;15.20;;
70303;SDS011;57712;48.752;11.348;2024-01-10T10:00:17;31.90;;;13.63;;
70303;SDS011;57712;48.752;11.348;2024-01-10T10:02:45;30.77;;;14.48;;
70303;SDS011;57712;48.752;11.348;2024-01-10T10:05:17;32.08;;;13.73;;
70303;SDS011;57712;48.752;11.348;2024-01-10T10:07:48;33.13;;;14.57;;
70303;SDS011;57712;48.752;11.348;2024-01-10T10:10:17;32.28;;;13.68;;
70303;SDS011;57712;48.752;11.348;2024-01-10T10:12:45;33.33;;;14.23;;
70303;SDS011;57712;48.752;11.348;2024-01-10T10:15:14;32.92;;;14.55;;
70303;SDS011;57712;48.752;11.348;2024-01-10T10:17:48;32.80;;;15.32;;
70303;SDS011;57712;48.752;11.348;2024-01-10T10:20:21;31.88;;;14.55;;
70303;SDS011;57712;48.752;11.348;2024-01-10T10:22:59;34.00;;;15.23;;
70303;SDS011;57712;48.752;11.348;2024-01-10T10:25:33;38.13;;;15.17;;
70303;SDS011;57712;48.752;11.348;2024-01-10T10:28:02;33.15;;;14.98;;
70303;SDS011;57712;48.752;11.348;2024-01-10T10:30:32;34.20;;;15.60;;
70303;SDS011;57712;48.752;11.348;2024-01-10T10:33:03;34.00;;;15.48;;
70303;SDS011;57712;48.752;11.348;2024-01-10T10:35:32;31.88;;;15.07;;
70303;SDS011;57712;48.752;11.348;2024-01-10T10:38:07;34.37;;;15.30;;
70303;SDS011;57712;48.752;11.348;2024-01-10T10:40:36;35.45;;;15.73;;
70303;SDS011;57712;48.752;11.348;2024-01-10T10:43:03;36.30;;;15.52;;
70303;SDS011;57712;48.752;11.348;2024-01-10T10:45:31;38.65;;;16.08;;
70303;SDS011;57712;48.752;11.348;2024-01-10T10:48:00;35.72;;;15.57;;
70303;SDS011;57712;48.752;11.348;2024-01-10T10:50:31;35.00;;;15.70;;
70303;SDS011;57712;48.752;11.348;2024-01-10T10:53:01;34.53;;;16.02;;
70303;SDS011;57712;48.752;11.348;2024-01-10T10:55:30;40.65;;;15.68;;
70303;SDS011;57712;48.752;11.348;2024-01-10T10:57:59;34.22;;;15.48;;
70303;SDS011;57712;48.752;11.348;2024-01-10T11:00:36;33.80;;;15.63;;
70303;SDS011;57712;48.752;11.348;2024-01-10T11:03:04;32.93;;;15.07;;
70303;SDS011;57712;48.752;11.348;2024-01-10T11:05:31;35.08;;;16.48;;
70303;SDS011;57712;48.752;11.348;2024-01-10T11:07:57;35.92;;;16.10;;
70303;SDS011;57712;48.752;11.348;2024-01-10T11:10:33;35.03;;;15.88;;
70303;SDS011;57712;48.752;11.348;2024-01-10T11:13:23;34.38;;;16.30;;
70303;SDS011;57712;48.752;11.348;2024-01-10T11:16:22;38.20;;;16.53;;
70303;SDS011;57712;48.752;11.348;2024-01-10T11:19:08;36.20;;;14.90;;
70303;SDS011;57712;48.752;11.348;2024-01-10T11:21:50;35.15;;;15.15;;
70303;SDS011;57712;48.752;11.348;2024-01-10T11:24:22;35.15;;;15.13;;
70303;SDS011;57712;48.752;11.348;2024-01-10T11:26:50;35.78;;;15.43;;
70303;SDS011;57712;48.752;11.348;2024-01-10T11:29:32;34.23;;;15.70;;
70303;SDS011;57712;48.752;11.348;2024-01-10T11:31:59;33.50;;;15.27;;
70303;SDS011;57712;48.752;11.348;2024-01-10T11:34:27;36.63;;;16.25;;
70303;SDS011;57712;48.752;11.348;2024-01-10T11:37:12;36.08;;;15.98;;
70303;SDS011;57712;48.752;11.348;2024-01-10T11:39:42;36.10;;;16.60;;
70303;SDS011;57712;48.752;11.348;2024-01-10T11:42:10;34.53;;;16.00;;
70303;SDS011;57712;48.752;11.348;2024-01-10T11:44:55;35.22;;;17.25;;
70303;SDS011;57712;48.752;11.348;2024-01-10T11:47:22;32.28;;;15.85;;
70303;SDS011;57712;48.752;11.348;2024-01-10T11:49:54;35.80;;;14.80;;
70303;SDS011;57712;48.752;11.348;2024-01-10T11:52:23;35.35;;;16.23;;
70303;SDS011;57712;48.752;11.348;2024-01-10T11:54:58;34.73;;;14.63;;
70303;SDS011;57712;48.752;11.348;2024-01-10T11:57:25;33.20;;;16.27;;
70303;SDS011;57712;48.752;11.348;2024-01-10T11:59:57;35.67;;;16.20;;
70303;SDS011;57712;48.752;11.348;2024-01-10T12:02:26;36.15;;;16.08;;
70303;SDS011;57712;48.752;11.348;2024-01-10T12:04:54;30.13;;;15.50;;
70303;SDS011;57712;48.752;11.348;2024-01-10T12:07:22;34.03;;;16.87;;
70303;SDS011;57712;48.752;11.348;2024-01-10T12:09:50;32.00;;;16.30;;
70303;SDS011;57712;48.752;11.348;2024-01-10T12:12:17;36.63;;;17.00;;
70303;SDS011;57712;48.752;11.348;2024-01-10T12:14:45;34.40;;;15.88;;
70303;SDS011;57712;48.752;11.348;2024-01-10T12:17:13;33.97;;;16.60;;
70303;SDS011;57712;48.752;11.348;2024-01-10T12:19:40;32.93;;;15.73;;
70303;SDS011;57712;48.752;11.348;2024-01-10T12:22:12;33.20;;;16.48;;
70303;SDS011;57712;48.752;11.348;2024-01-10T12:24:49;33.17;;;15.98;;
70303;SDS011;57712;48.752;11.348;2024-01-10T12:27:17;32.90;;;16.17;;
70303;SDS011;57712;48.752;11.348;2024-01-10T12:29:49;33.88;;;16.35;;
70303;SDS011;57712;48.752;11.348;2024-01-10T12:32:18;32.77;;;17.17;;
70303;SDS011;57712;48.752;11.348;2024-01-10T12:34:47;32.75;;;16.67;;
70303;SDS011;57712;48.752;11.348;2024-01-10T12:37:14;37.03;;;17.27;;
70303;SDS011;57712;48.752;11.348;2024-01-10T12:39:41;34.22;;;15.80;;
70303;SDS011;57712;48.752;11.348;2024-01-10T12:42:07;33.33;;;17.55;;
70303;SDS011;57712;48.752;11.348;2024-01-10T12:44:36;31.23;;;16.13;;
70303;SDS011;57712;48.752;11.348;2024-01-10T12:47:02;34.67;;;16.40;;
70303;SDS011;57712;48.752;11.348;2024-01-10T12:49:30;31.65;;;16.65;;
70303;SDS011;57712;48.752;11.348;2024-01-10T12:51:57;32.58;;;16.38;;
70303;SDS011;57712;48.752;11.348;2024-01-10T12:54:24;31.92;;;15.65;;
70303;SDS011;57712;48.752;11.348;2024-01-10T12:56:51;34.27;;;15.57;;
70303;SDS011;57712;48.752;11.348;2024-01-10T12:59:18;29.58;;;15.38;;
70303;SDS011;57712;48.752;11.348;2024-01-10T13:01:45;33.42;;;16.10;;
70303;SDS011;57712;48.752;11.348;2024-01-10T13:04:12;30.58;;;16.27;;
70303;SDS011;57712;48.752;11.348;2024-01-10T13:06:39;31.90;;;16.00;;
70303;SDS011;57712;48.752;11.348;2024-01-10T13:09:07;33.07;;;16.13;;
70303;SDS011;57712;48.752;11.348;2024-01-10T13:11:34;30.27;;;16.13;;
70303;SDS011;57712;48.752;11.348;2024-01-10T13:14:01;32.28;;;16.65;;
70303;SDS011;57712;48.752;11.348;2024-01-10T13:16:28;33.45;;;17.00;;
70303;SDS011;57712;48.752;11.348;2024-01-10T13:18:55;31.85;;;17.40;;
70303;SDS011;57712;48.752;11.348;2024-01-10T13:21:24;34.10;;;17.70;;
70303;SDS011;57712;48.752;11.348;2024-01-10T13:23:51;30.42;;;16.98;;
70303;SDS011;57712;48.752;11.348;2024-01-10T13:26:17;31.52;;;16.15;;
70303;SDS011;57712;48.752;11.348;2024-01-10T13:28:44;29.58;;;15.73;;
70303;SDS011;57712;48.752;11.348;2024-01-10T13:31:11;30.13;;;15.65;;
70303;SDS011;57712;48.752;11.348;2024-01-10T13:33:39;31.87;;;15.80;;
70303;SDS011;57712;48.752;11.348;2024-01-10T13:36:12;32.75;;;16.67;;
70303;SDS011;57712;48.752;11.348;2024-01-10T13:38:39;33.40;;;16.38;;
70303;SDS011;57712;48.752;11.348;2024-01-10T13:41:06;30.63;;;15.27;;
70303;SDS011;57712;48.752;11.348;2024-01-10T13:43:33;29.52;;;14.85;;
70303;SDS011;57712;48.752;11.348;2024-01-10T13:45:59;32.90;;;16.77;;
70303;SDS011;57712;48.752;11.348;2024-01-10T13:48:32;31.38;;;15.68;;
70303;SDS011;57712;48.752;11.348;2024-01-10T13:50:59;31.95;;;16.13;;
70303;SDS011;57712;48.752;11.348;2024-01-10T13:53:26;30.67;;;16.33;;
70303;SDS011;57712;48.752;11.348;2024-01-10T13:55:53;35.63;;;15.98;;
70303;SDS011;57712;48.752;11.348;2024-01-10T13:58:20;30.93;;;15.73;;
70303;SDS011;57712;48.752;11.348;2024-01-10T14:00:50;30.55;;;15.63;;
70303;SDS011;57712;48.752;11.348;2024-01-10T14:03:18;33.28;;;16.17;;
70303;SDS011;57712;48.752;11.348;2024-01-10T14:05:44;31.17;;;15.75;;
70303;SDS011;57712;48.752;11.348;2024-01-10T14:08:11;28.65;;;14.60;;
70303;SDS011;57712;48.752;11.348;2024-01-10T14:10:38;29.07;;;14.40;;
70303;SDS011;57712;48.752;11.348;2024-01-10T14:13:06;29.40;;;14.38;;
70303;SDS011;57712;48.752;11.348;2024-01-10T14:15:33;32.33;;;15.13;;